• Join FlightAware (Why Join?)
  • Login
  • US Flag 
Trick or treat! (Boo!!) 
02:23AM EDT


 

Airport Tracker/Info


-or-


 

Live Flight TrackerFlight Track Log ✈ WAE5 ✈ 17-May-2013 ✈ KSLC - KPIH

Flight Track Log - Related Links

Times and Time Zones

All times are in EDT time to prevent confusion due to time zone crossing. See the WAE5 flight status page for this flight to view local times or setup timezone preferences in your user account.

Time Position Orientation Groundspeed Altitude Reporting Facility
EDT Latitude Longitude Course Direction KTS MPH feet Rate Location/Type
08:41AM 40.8067 -111.9794 311° West 111 128 4,900  Level Salt Lake Center
08:42AM 40.8219 -112.0025 311° West 123 142 5,500 840 Climbing Salt Lake Center
08:43AM 40.8386 -112.0222 318° Northwest 116 133 6,200 840 Climbing Salt Lake Center
08:43AM 40.8464 -112.0283 329° Northwest 114 131 6,400 780 Climbing Salt Lake Center
08:44AM 40.8672 -112.0439 331° Northwest 119 137 7,000 780 Climbing Salt Lake Center
08:44AM 40.8742 -112.0500 326° Northwest 119 137 7,200 900 Climbing Salt Lake Center
08:45AM 40.8972 -112.0675 330° Northwest 125 144 7,900 840 Climbing Salt Lake Center
08:45AM 40.9047 -112.0736 328° Northwest 127 146 8,100 780 Climbing Salt Lake Center
08:46AM 40.9325 -112.0786 352° North 132 152 8,700 660 Climbing Salt Lake Center
08:46AM 40.9428 -112.0806 352° North 132 152 8,800 660 Climbing Salt Lake Center
08:47AM 40.9722 -112.0883 349° North 144 166 9,400 780 Climbing Salt Lake Center
08:47AM 40.9883 -112.0936 346° North 146 168 9,700 480 Climbing Salt Lake Center
08:48AM 41.0136 -112.0978 353° North 150 173 9,900 120 Climbing Salt Lake Center
08:49AM 41.0642 -112.0997 358° North 180 207 9,900  Level Salt Lake Center
08:50AM 41.1167 -112.1011 359° North 189 217 9,900  Level Salt Lake Center
08:51AM 41.1703 -112.1022 359° North 191 220 9,900  Level Salt Lake Center
08:52AM 41.2228 -112.1022 360° North 189 217 9,900  Level Salt Lake Center
08:53AM 41.2761 -112.1017 360° North 189 217 9,900  Level Salt Lake Center
08:54AM 41.3236 -112.1347 332° Northwest 190 219 9,900  Level Salt Lake Center
08:55AM 41.3736 -112.1575 341° North 189 217 9,900  Level Salt Lake Center
08:56AM 41.4267 -112.1731 348° North 194 223 9,900  Level Salt Lake Center
08:57AM 41.4769 -112.1906 345° North 186 214 9,900  Level Salt Lake Center
08:58AM 41.5283 -112.2117 343° North 191 220 9,900  Level Salt Lake Center
08:59AM 41.5797 -112.2267 348° North 191 220 9,900  Level Salt Lake Center
09:00AM 41.6286 -112.2439 345° North 185 213 9,900  Level Salt Lake Center
09:01AM 41.6778 -112.2603 346° North 183 211 9,900  Level Salt Lake Center
09:02AM 41.7289 -112.2803 344° North 188 216 10,000  Climbing Salt Lake Center
09:03AM 41.7783 -112.3017 342° North 187 215 9,900  Descending Salt Lake Center
09:04AM 41.8269 -112.3211 343° North 184 212 10,000  Climbing Salt Lake Center
09:05AM 41.8767 -112.3419 343° North 185 213 10,000 -60 Level Salt Lake Center
09:06AM 41.9267 -112.3636 342° North 187 215 9,900  Descending Salt Lake Center
09:07AM 41.9881 -112.3864 345° North 189 217 10,000  Climbing Salt Lake Center
09:08AM 42.0403 -112.3983 350° North 190 219 10,000  Level Salt Lake Center
09:09AM 42.0922 -112.4131 348° North 190 219 10,000 -60 Level Salt Lake Center
09:10AM 42.1425 -112.4319 344° North 190 219 9,900  Descending Salt Lake Center
09:11AM 42.1936 -112.4494 346° North 189 217 10,100 60 Climbing Salt Lake Center
09:12AM 42.2444 -112.4600 351° North 187 215 10,100  Level Salt Lake Center
09:13AM 42.2972 -112.4767 347° North 190 219 10,100  Level Salt Lake Center
09:14AM 42.3469 -112.4911 348° North 188 216 10,100  Level Salt Lake Center
09:15AM 42.3978 -112.5050 349° North 187 215 10,100  Level Salt Lake Center
09:16AM 42.4478 -112.5194 348° North 185 213 10,100  Level Salt Lake Center
09:17AM 42.4978 -112.5325 349° North 184 212 10,100  Level Salt Lake Center
09:18AM 42.5464 -112.5444 350° North 180 207 10,100  Level Salt Lake Center
09:19AM 42.5947 -112.5572 349° North 178 205 10,100  Level Salt Lake Center
09:20AM 42.6419 -112.5719 347° North 176 203 10,100  Level Salt Lake Center
09:21AM 42.6886 -112.5906 344° North 175 201 10,100 -60 Level Salt Lake Center
09:22AM 42.7406 -112.6103 344° North 175 201 10,000 -540 Descending Salt Lake Center
09:23AM 42.8022 -112.6278 348° North 184 212 9,100 -540 Descending Salt Lake Center
09:24AM 42.8486 -112.6431 346° North 194 223 9,000 -1,440 Descending Salt Lake Center
09:25AM 42.9122 -112.6467 358° North 200 230 6,200 -1,380 Descending Salt Lake Center
09:26AM 42.9461 -112.5803 55° Northeast 214 246 6,300 -420 Climbing Salt Lake Center
09:27AM 42.9303 -112.5511 127° Southeast 172 198 5,400 -900 Descending Salt Lake Center